createdAt,value
2019-06-04T03:58:56.383Z,48.87
2019-06-04T04:01:56.319Z,48.84
2019-06-04T04:05:18.388Z,48.94
2019-06-04T04:06:18.804Z,48.94
2019-06-04T04:08:19.839Z,49.06
2019-06-04T04:09:18.540Z,49.16
2019-06-04T04:10:18.628Z,49.04
2019-06-04T04:14:18.897Z,49.46
2019-06-04T04:16:18.919Z,48.94
2019-06-04T04:17:18.863Z,48.44
2019-06-04T04:24:18.756Z,48.65
2019-06-04T04:36:40.031Z,48.62
2019-06-04T04:53:39.828Z,47.68
2019-06-04T04:56:39.799Z,47.58
2019-06-04T04:59:39.816Z,47.29
2019-06-04T05:02:39.736Z,46.79
2019-06-04T05:10:01.450Z,46.87
2019-06-04T05:16:01.362Z,46.97
2019-06-04T05:20:01.354Z,46.94
2019-06-04T05:21:01.380Z,46.77
2019-06-04T05:27:01.276Z,46.35
2019-06-04T05:28:01.253Z,46.25
2019-06-04T05:30:01.307Z,46.25
2019-06-04T05:33:01.188Z,46.85
2019-06-04T05:34:01.179Z,46.55
2019-06-04T05:35:04.682Z,46.94
2019-06-04T05:36:01.159Z,46.94
2019-06-04T05:37:01.146Z,46.75
2019-06-04T05:38:01.170Z,46.94
2019-06-04T05:39:01.130Z,46.85
2019-06-04T05:40:01.130Z,46.85
2019-06-04T05:41:01.168Z,46.72
2019-06-04T05:42:01.106Z,46.94
2019-06-04T05:43:01.072Z,46.63
2019-06-04T05:44:01.077Z,46.92
2019-06-04T05:45:01.097Z,46.65
2019-06-04T05:46:01.053Z,46.92
2019-06-04T05:47:01.054Z,47.22
2019-06-04T05:48:01.027Z,46.82
2019-06-04T05:49:05.185Z,46.92
2019-06-04T05:50:01.029Z,46.63
2019-06-04T05:51:00.991Z,46.82
2019-06-04T05:52:00.985Z,46.82
2019-06-04T05:53:00.982Z,47.02
2019-06-04T05:54:00.965Z,46.43
2019-06-04T05:55:00.972Z,46.43
2019-06-04T05:56:00.936Z,46.82
2019-06-04T05:57:00.924Z,46.92
2019-06-04T05:58:00.942Z,47.02
2019-06-04T05:59:00.902Z,46.92
2019-06-04T06:00:00.914Z,46.70
2019-06-04T06:01:00.899Z,47.00
2019-06-04T06:02:00.872Z,46.41
2019-06-04T06:03:00.861Z,46.50
2019-06-04T06:04:00.853Z,47.10
2019-06-04T06:05:00.839Z,46.70
2019-06-04T06:06:00.850Z,47.00
2019-06-04T06:07:00.899Z,46.90
2019-06-04T06:08:00.861Z,46.70
2019-06-04T06:09:00.803Z,47.00
2019-06-04T06:10:00.806Z,46.80
2019-06-04T06:11:00.786Z,46.88
2019-06-04T06:12:00.776Z,46.60
2019-06-04T06:13:00.759Z,46.70
2019-06-04T06:14:00.760Z,46.68
2019-06-04T06:15:00.771Z,46.90
2019-06-04T06:16:00.772Z,46.80
2019-06-04T06:17:00.720Z,47.07
2019-06-04T06:18:00.717Z,46.97
2019-06-04T06:19:00.754Z,46.88
2019-06-04T06:20:00.691Z,46.78
2019-06-04T06:21:00.704Z,46.97
2019-06-04T06:22:00.680Z,46.68
2019-06-04T06:23:10.699Z,46.68
2019-06-04T06:24:22.478Z,46.28
2019-06-04T06:25:22.502Z,46.19
2019-06-04T06:26:22.614Z,46.78
2019-06-04T06:27:22.446Z,46.88
2019-06-04T06:28:22.436Z,46.80
2019-06-04T06:29:22.448Z,46.88
2019-06-04T06:30:22.403Z,46.80
2019-06-04T06:31:22.390Z,46.78
2019-06-04T06:32:22.388Z,46.88
2019-06-04T06:33:22.400Z,46.80
2019-06-04T06:34:22.380Z,46.90
2019-06-04T06:35:40.683Z,46.97
2019-06-04T06:36:45.194Z,47.10
2019-06-04T06:37:45.152Z,47.89
2019-06-04T06:38:55.021Z,47.00
2019-06-04T06:40:07.584Z,47.30
2019-06-04T06:41:07.528Z,47.59
2019-06-04T06:42:08.585Z,47.49
2019-06-04T06:43:07.514Z,47.39
2019-06-04T06:44:07.534Z,47.89
2019-06-04T06:45:07.521Z,48.08
2019-06-04T06:46:07.485Z,48.08
2019-06-04T06:47:07.473Z,47.59
2019-06-04T06:48:07.458Z,47.81
2019-06-04T06:49:07.499Z,48.28
2019-06-04T06:50:07.481Z,48.11
2019-06-04T06:51:07.447Z,48.58
2019-06-04T06:52:07.790Z,48.51
2019-06-04T06:53:07.399Z,48.30
2019-06-04T06:54:07.386Z,48.51
2019-06-04T06:55:07.382Z,48.70
2019-06-04T06:56:07.370Z,48.51
2019-06-04T06:57:07.374Z,48.60
2019-06-04T06:58:07.340Z,48.40
2019-06-04T06:59:08.330Z,48.60
2019-06-04T07:00:08.339Z,48.40
2019-06-04T07:01:07.339Z,48.60
2019-06-04T07:02:23.247Z,48.51
2019-06-04T07:03:30.725Z,48.70
2019-06-04T07:04:30.174Z,48.70
2019-06-04T07:05:29.454Z,48.30
2019-06-04T07:06:29.802Z,48.40
2019-06-04T07:07:29.560Z,48.60
2019-06-04T07:08:30.362Z,48.60
2019-06-04T07:09:29.410Z,48.40
2019-06-04T07:10:30.443Z,48.40
2019-06-04T07:11:30.432Z,48.33
2019-06-04T07:12:30.544Z,48.43
2019-06-04T07:13:30.863Z,48.82
2019-06-04T07:14:30.525Z,49.02
2019-06-04T07:15:30.311Z,49.02
2019-06-04T07:16:29.323Z,48.73
2019-06-04T07:17:31.183Z,49.62
2019-06-04T07:18:31.618Z,48.63
2019-06-04T07:19:29.288Z,49.42
2019-06-04T07:20:29.351Z,49.71
2019-06-04T07:21:29.643Z,48.63
2019-06-04T07:22:29.428Z,48.82
2019-06-04T07:23:30.667Z,48.73
2019-06-04T07:24:29.925Z,48.82
2019-06-04T07:25:29.919Z,48.75
2019-06-04T07:26:29.772Z,49.02
2019-06-04T07:27:29.861Z,49.51
2019-06-04T07:28:30.218Z,49.42
2019-06-04T07:29:30.292Z,49.54
2019-06-04T07:30:30.542Z,48.63
2019-06-04T07:31:30.091Z,48.73
2019-06-04T07:32:30.304Z,48.92
2019-06-04T07:33:30.962Z,48.26
2019-06-04T07:34:30.474Z,48.82
2019-06-04T07:35:30.526Z,49.02
2019-06-04T07:36:31.811Z,49.24
2019-06-04T07:37:30.442Z,48.75
2019-06-04T07:38:30.741Z,48.33
2019-06-04T07:39:30.718Z,48.35
2019-06-04T07:40:29.080Z,48.33
2019-06-04T07:41:29.079Z,48.33
2019-06-04T07:42:30.973Z,48.33
2019-06-04T07:43:29.044Z,48.52
2019-06-04T07:44:29.061Z,48.63
2019-06-04T07:45:29.069Z,48.52
2019-06-04T07:46:29.009Z,48.52
2019-06-04T07:47:29.055Z,48.52
2019-06-04T07:48:34.048Z,48.43
2019-06-04T07:49:52.589Z,48.52
2019-06-04T07:50:52.588Z,48.40
2019-06-04T07:51:52.565Z,48.73
2019-06-04T07:52:52.601Z,48.11
2019-06-04T07:53:52.547Z,48.51
2019-06-04T07:54:52.523Z,48.80
2019-06-04T07:55:52.525Z,48.40
2019-06-04T07:56:52.526Z,48.51
2019-06-04T07:57:52.570Z,48.30
2019-06-04T07:58:52.487Z,48.33
2019-06-04T07:59:52.518Z,48.92
2019-06-04T08:00:52.472Z,49.51
2019-06-04T08:02:06.547Z,49.74
2019-06-04T08:03:14.990Z,50.36
2019-06-04T08:04:14.965Z,50.43
2019-06-04T08:05:14.985Z,50.06
2019-06-04T08:06:15.034Z,49.84
2019-06-04T08:07:14.981Z,49.44
2019-06-04T08:08:14.915Z,49.54
2019-06-04T08:09:14.903Z,48.63
2019-06-04T08:10:14.966Z,49.44
2019-06-04T08:11:14.883Z,49.54
2019-06-04T08:12:14.905Z,49.44
2019-06-04T08:13:14.917Z,49.02
2019-06-04T08:14:14.839Z,48.85
2019-06-04T08:15:14.834Z,48.73
2019-06-04T08:16:14.833Z,48.13
2019-06-04T08:17:14.831Z,48.33
2019-06-04T08:18:14.814Z,48.33
2019-06-04T08:19:14.792Z,48.82
2019-06-04T08:20:14.806Z,48.33
2019-06-04T08:21:14.802Z,48.33
2019-06-04T08:22:14.759Z,48.43
2019-06-04T08:23:14.753Z,49.12
2019-06-04T08:24:14.773Z,48.95
2019-06-04T08:25:14.733Z,48.85
2019-06-04T08:26:14.730Z,48.95
2019-06-04T08:27:14.731Z,49.24
2019-06-04T08:28:14.747Z,48.35
2019-06-04T08:29:14.712Z,48.35
2019-06-04T08:30:14.686Z,48.35
2019-06-04T08:31:14.710Z,48.43
2019-06-04T08:32:14.675Z,48.52
2019-06-04T08:33:14.658Z,48.43
2019-06-04T08:34:14.654Z,48.43
2019-06-04T08:35:14.633Z,48.33
2019-06-04T08:36:14.666Z,49.02
2019-06-04T08:37:14.618Z,48.33
2019-06-04T08:38:15.863Z,48.63
2019-06-04T08:39:14.585Z,48.52
2019-06-04T08:40:14.668Z,48.43
2019-06-04T08:41:14.573Z,48.52
2019-06-04T08:42:14.551Z,48.23
2019-06-04T08:43:14.570Z,48.52
2019-06-04T08:44:14.550Z,48.82
2019-06-04T08:45:14.529Z,48.80
2019-06-04T08:46:14.526Z,48.51
2019-06-04T08:47:14.510Z,48.51
2019-06-04T08:48:14.491Z,48.60
2019-06-04T08:49:14.500Z,48.43
2019-06-04T08:50:14.467Z,49.00
2019-06-04T08:51:14.455Z,48.51
2019-06-04T08:52:14.485Z,48.52
2019-06-04T08:53:14.501Z,48.40
2019-06-04T08:54:16.272Z,48.60
2019-06-04T08:55:14.430Z,48.11
2019-06-04T08:56:14.438Z,48.51
2019-06-04T08:57:17.417Z,48.70
2019-06-04T08:58:14.450Z,48.51
2019-06-04T08:59:14.409Z,48.30
2019-06-04T09:00:14.419Z,48.11
2019-06-04T09:01:14.341Z,47.61
2019-06-04T09:02:14.348Z,48.11
2019-06-04T09:03:14.363Z,47.81
2019-06-04T09:04:14.322Z,48.01
2019-06-04T09:05:14.327Z,48.30
2019-06-04T09:06:14.305Z,48.23
2019-06-04T09:07:26.034Z,48.21
2019-06-04T09:08:38.132Z,48.73
2019-06-04T09:09:36.618Z,48.23
2019-06-04T09:10:36.628Z,48.33
2019-06-04T09:11:36.602Z,48.21
2019-06-04T09:12:37.654Z,48.13
2019-06-04T09:13:36.601Z,48.52
2019-06-04T09:14:37.954Z,48.60
2019-06-04T15:15:29.476Z,45.13
2019-06-04T15:16:29.461Z,45.03
2019-06-04T15:17:29.469Z,45.33
2019-06-04T15:18:29.453Z,45.23
2019-06-04T15:19:29.444Z,45.53
2019-06-04T15:20:29.427Z,45.53
2019-06-04T15:21:29.466Z,45.23
2019-06-04T15:22:29.429Z,45.62
2019-06-04T15:23:32.955Z,45.43
2019-06-04T15:24:29.375Z,45.13
2019-06-04T15:25:29.358Z,45.13
2019-06-04T15:26:29.362Z,44.86
2019-06-04T15:27:29.343Z,45.13
2019-06-04T15:28:29.328Z,45.13
2019-06-04T15:29:29.327Z,44.86
2019-06-04T15:30:29.309Z,45.35
2019-06-04T15:31:29.304Z,45.55
2019-06-04T15:32:29.286Z,45.55
2019-06-04T15:33:29.296Z,45.55
2019-06-04T15:34:29.270Z,45.45
2019-06-04T15:35:29.252Z,45.45
2019-06-04T15:36:29.241Z,45.55
2019-06-04T15:37:29.241Z,45.65
2019-06-04T15:38:29.225Z,45.75
2019-06-04T15:39:29.306Z,45.45
2019-06-04T15:40:29.204Z,45.45
2019-06-04T15:41:45.038Z,45.55
2019-06-04T15:42:52.313Z,45.45
2019-06-04T15:43:52.275Z,45.25
2019-06-04T15:44:52.267Z,45.45
2019-06-04T15:45:52.276Z,45.25
2019-06-04T15:46:52.252Z,45.45
2019-06-04T15:47:52.306Z,45.35
2019-06-04T15:48:52.237Z,45.94
2019-06-04T15:49:52.234Z,45.55
2019-06-04T15:50:52.211Z,45.45
2019-06-04T15:51:52.189Z,45.35
2019-06-04T15:52:56.291Z,45.45
2019-06-04T15:53:52.177Z,45.45
2019-06-04T15:54:52.167Z,45.35
2019-06-04T15:55:53.188Z,45.75
2019-06-04T15:56:52.139Z,45.45
2019-06-04T15:57:52.134Z,45.65
2019-06-04T15:58:52.118Z,45.33
2019-06-04T15:59:52.101Z,45.15
2019-06-04T16:00:52.086Z,45.25
2019-06-04T16:01:52.074Z,45.43
2019-06-04T16:02:52.069Z,44.86
2019-06-04T16:03:52.057Z,45.03
2019-06-04T16:04:52.059Z,45.23
2019-06-04T16:05:52.148Z,45.55
2019-06-04T16:06:52.029Z,45.45
2019-06-04T16:07:52.015Z,45.43
2019-06-04T16:08:52.013Z,45.53
2019-06-04T16:09:52.016Z,45.33
2019-06-04T16:10:51.984Z,45.62
2019-06-04T16:12:06.001Z,45.62
2019-06-04T16:13:14.398Z,45.43
2019-06-04T16:14:14.373Z,45.53
2019-06-04T16:15:14.360Z,45.23
2019-06-04T16:16:14.342Z,45.23
2019-06-04T16:17:14.356Z,45.33
2019-06-04T16:18:14.342Z,45.25
2019-06-04T16:19:14.326Z,45.25
2019-06-04T16:20:14.316Z,45.72
2019-06-04T16:21:14.302Z,45.84
2019-06-04T16:22:14.298Z,45.35
2019-06-04T16:23:16.183Z,45.43
2019-06-04T16:24:14.274Z,45.53
2019-06-04T16:25:14.252Z,45.83
2019-06-04T16:26:14.259Z,45.06
2019-06-04T16:27:14.234Z,45.13
2019-06-04T16:28:15.892Z,45.25
2019-06-04T16:29:15.189Z,45.06
2019-06-04T16:30:14.202Z,45.15
2019-06-04T16:31:14.227Z,45.06
2019-06-04T16:32:14.176Z,45.25
2019-06-04T16:33:14.171Z,45.25
2019-06-04T16:34:14.224Z,45.15
2019-06-04T16:35:14.170Z,45.75
2019-06-04T16:36:14.199Z,45.75
2019-06-04T16:37:14.129Z,45.55
2019-06-04T16:38:14.116Z,45.65
2019-06-04T16:39:14.106Z,45.65
2019-06-04T16:40:14.084Z,45.45
2019-06-04T16:41:14.094Z,45.45
2019-06-04T16:42:25.205Z,45.45
2019-06-04T16:43:36.527Z,45.45
2019-06-04T16:44:36.530Z,45.45
2019-06-04T16:45:36.511Z,45.75
2019-06-04T16:46:36.510Z,45.55
2019-06-04T16:47:36.487Z,45.65
2019-06-04T16:48:36.477Z,45.55
2019-06-04T16:49:36.458Z,45.45
2019-06-04T16:50:36.455Z,45.45
2019-06-04T16:51:36.444Z,45.75
2019-06-04T16:52:36.421Z,45.65
2019-06-04T16:53:36.412Z,45.55
2019-06-04T16:54:36.401Z,45.65
2019-06-04T16:55:36.399Z,45.45
2019-06-04T16:56:36.378Z,45.45
2019-06-04T16:57:36.374Z,45.45
2019-06-04T16:58:36.362Z,45.45
2019-06-04T16:59:36.352Z,45.45
2019-06-04T17:00:36.344Z,45.06
2019-06-04T17:01:36.338Z,45.45
2019-06-04T17:02:36.329Z,45.94
2019-06-04T17:03:36.312Z,45.45
2019-06-04T17:04:36.308Z,45.55
2019-06-04T17:05:36.289Z,45.75
2019-06-04T17:06:36.267Z,45.65
2019-06-04T17:07:36.259Z,45.55
2019-06-04T17:08:36.262Z,45.35
2019-06-04T17:09:36.252Z,45.45
2019-06-04T17:10:36.225Z,45.06
2019-06-04T17:11:36.215Z,44.86
2019-06-04T17:12:50.853Z,44.86
2019-06-04T17:13:58.570Z,44.86
2019-06-04T17:15:00.219Z,44.86
2019-06-04T17:15:58.541Z,44.86
2019-06-04T17:16:58.534Z,45.06
2019-06-04T17:17:58.533Z,44.96
2019-06-04T17:18:58.547Z,45.35
2019-06-04T17:19:58.568Z,45.45
2019-06-04T17:20:58.505Z,45.84
2019-06-04T17:21:58.482Z,45.75
2019-06-04T17:22:58.470Z,45.35
2019-06-04T17:23:58.465Z,45.55
2019-06-04T17:24:58.456Z,45.25
2019-06-04T17:25:58.451Z,45.45
2019-06-04T17:26:58.428Z,45.45
2019-06-04T17:27:58.423Z,45.35
2019-06-04T17:28:58.411Z,45.45
2019-06-04T17:29:58.416Z,45.45
2019-06-04T17:30:58.391Z,45.45
2019-06-04T17:31:58.376Z,45.45
2019-06-04T17:32:58.363Z,45.55
2019-06-04T17:33:58.348Z,45.55
2019-06-04T17:34:58.342Z,45.45
2019-06-04T17:35:58.330Z,45.75
2019-06-04T17:36:58.366Z,44.56
2019-06-04T17:37:58.313Z,45.06
2019-06-04T17:38:58.315Z,45.35
2019-06-04T17:39:58.283Z,45.57
2019-06-04T17:40:58.277Z,45.77
2019-06-04T17:41:58.268Z,45.47
2019-06-04T17:43:05.748Z,45.57
2019-06-04T17:44:21.210Z,45.18
2019-06-04T17:45:21.197Z,45.08
2019-06-04T17:46:21.183Z,45.18
2019-06-04T17:47:21.181Z,44.98
2019-06-04T17:48:21.168Z,45.18
2019-06-04T17:49:21.148Z,44.88
2019-06-04T17:50:21.146Z,45.18
2019-06-04T17:51:21.140Z,45.47
2019-06-04T17:52:21.124Z,44.98
2019-06-04T17:53:21.099Z,45.18
2019-06-04T17:54:21.090Z,45.08
2019-06-04T17:55:21.089Z,45.28
2019-06-04T17:56:21.079Z,45.08
2019-06-04T17:57:21.067Z,45.67
2019-06-04T17:58:21.052Z,44.88
2019-06-04T17:59:21.048Z,45.28
2019-06-04T18:00:21.033Z,44.88
2019-06-04T18:01:21.019Z,45.18
2019-06-04T18:02:21.118Z,45.18
2019-06-04T18:03:20.997Z,44.88
2019-06-04T18:04:20.985Z,45.18
2019-06-04T18:05:23.728Z,45.18
2019-06-04T18:06:20.957Z,44.88
2019-06-04T18:07:20.959Z,45.18
2019-06-04T18:08:20.950Z,44.98
2019-06-04T18:09:20.926Z,45.28
2019-06-04T18:10:20.933Z,44.88
2019-06-04T18:11:20.911Z,45.18
2019-06-04T18:12:20.896Z,45.18
2019-06-04T18:13:25.066Z,44.88
2019-06-04T18:14:20.878Z,44.88
2019-06-04T18:15:20.872Z,45.18
2019-06-04T18:16:20.874Z,45.18
2019-06-04T18:17:20.857Z,44.88
2019-06-04T18:18:21.191Z,45.18
2019-06-04T18:19:20.853Z,45.18
2019-06-04T18:20:20.823Z,45.18
2019-06-04T18:21:20.825Z,45.18
2019-06-04T18:22:20.803Z,45.08
2019-06-04T18:23:20.793Z,45.08
2019-06-04T18:24:20.780Z,45.77
2019-06-04T18:25:20.776Z,45.57
2019-06-04T18:26:20.756Z,45.67
2019-06-04T18:27:20.741Z,45.08
2019-06-04T18:28:20.760Z,45.67
2019-06-04T18:29:20.767Z,45.79
2019-06-04T18:30:20.715Z,45.50
2019-06-04T18:31:20.707Z,45.69
2019-06-04T18:32:20.697Z,45.40
2019-06-04T18:33:20.681Z,45.50
2019-06-04T18:34:20.668Z,45.79
2019-06-04T18:35:20.691Z,45.79
2019-06-04T18:36:20.671Z,45.89
2019-06-04T18:37:20.638Z,45.59
2019-06-04T18:38:20.622Z,45.50
2019-06-04T18:39:20.611Z,45.50
2019-06-04T18:40:20.600Z,45.89
2019-06-04T18:41:20.600Z,45.99
2019-06-04T18:42:20.583Z,45.89
2019-06-04T18:43:20.622Z,45.99
2019-06-04T18:44:20.562Z,45.59
2019-06-04T18:45:20.552Z,45.59
2019-06-04T18:46:20.549Z,45.62
2019-06-04T18:47:20.529Z,46.41
2019-06-04T18:48:20.510Z,46.11
2019-06-04T18:49:23.666Z,46.31
2019-06-04T18:50:20.502Z,46.19
2019-06-04T18:51:20.477Z,46.28
2019-06-04T18:52:20.468Z,46.38
2019-06-04T18:53:20.458Z,46.38
2019-06-04T18:54:20.448Z,46.11
2019-06-04T18:55:20.431Z,46.01
2019-06-04T18:56:20.463Z,46.31
2019-06-04T18:57:20.415Z,45.91
2019-06-04T18:58:20.411Z,45.72
2019-06-04T18:59:20.386Z,46.70
2019-06-04T19:00:20.389Z,46.11
2019-06-04T19:01:20.406Z,46.50
2019-06-04T19:02:20.374Z,46.31
2019-06-04T19:03:20.348Z,46.21
2019-06-04T19:04:20.353Z,46.31
2019-06-04T19:05:20.325Z,46.21
2019-06-04T19:06:20.312Z,46.21
2019-06-04T19:07:20.324Z,46.21
2019-06-04T19:08:20.300Z,46.11
2019-06-04T19:09:20.289Z,46.01
2019-06-04T19:10:20.300Z,46.13
2019-06-04T19:11:20.263Z,46.11
2019-06-04T19:12:20.249Z,46.11
2019-06-04T19:13:20.240Z,46.13
2019-06-04T19:14:20.233Z,46.11
2019-06-04T19:15:20.219Z,46.11
2019-06-04T19:16:20.219Z,46.11
2019-06-04T19:17:20.202Z,46.21
2019-06-04T19:18:20.203Z,45.94
2019-06-04T19:19:28.946Z,46.13
2019-06-04T19:20:41.709Z,46.11
2019-06-04T19:21:46.346Z,45.91
2019-06-04T19:23:03.693Z,45.91
2019-06-04T19:24:03.682Z,46.01
2019-06-04T19:25:03.670Z,45.91
2019-06-04T19:26:03.666Z,45.94
2019-06-04T19:27:03.677Z,46.23
2019-06-04T19:28:03.683Z,45.94
2019-06-04T19:29:03.692Z,46.13
2019-06-04T19:30:03.807Z,45.73
2019-06-04T19:31:03.606Z,45.84
2019-06-04T19:32:03.636Z,45.73
2019-06-04T19:33:03.622Z,46.03
2019-06-04T19:34:04.104Z,45.73
2019-06-04T19:35:03.568Z,45.94
2019-06-04T19:36:03.552Z,45.73
2019-06-04T19:37:03.575Z,45.94
2019-06-04T19:38:03.536Z,46.03
2019-06-04T19:39:03.523Z,46.03
2019-06-04T19:40:03.508Z,45.84
2019-06-04T19:41:03.495Z,45.94
2019-06-04T19:42:03.495Z,46.03
2019-06-04T19:43:03.508Z,45.84
2019-06-04T19:44:19.841Z,45.84
2019-06-04T19:45:27.570Z,45.84
2019-06-04T19:46:27.564Z,45.84
2019-06-04T19:47:27.581Z,45.73
2019-06-04T19:48:27.553Z,45.94
2019-06-04T19:49:27.523Z,45.73
2019-06-04T19:50:27.530Z,46.03
2019-06-04T19:51:27.500Z,45.84
2019-06-04T19:52:27.502Z,45.84
2019-06-04T19:53:27.480Z,46.03
2019-06-04T19:54:27.472Z,46.03
2019-06-04T19:55:27.456Z,46.03
2019-06-04T19:56:27.441Z,46.03
2019-06-04T19:57:27.438Z,46.03
2019-06-04T19:59:27.409Z,46.13
2019-06-04T20:00:27.426Z,46.13
2019-06-04T20:01:27.410Z,46.23
2019-06-04T20:02:27.383Z,46.13
